createdAt,value
2018-11-05T00:00:49.487Z,13.47
2018-11-05T00:03:16.600Z,12.40
2018-11-05T00:05:44.260Z,12.27
2018-11-05T00:08:11.355Z,13.20
2018-11-05T00:10:38.455Z,12.60
2018-11-05T00:13:05.572Z,12.47
2018-11-05T00:15:32.710Z,12.60
2018-11-05T00:17:59.818Z,12.80
2018-11-05T00:20:26.940Z,13.13
2018-11-05T00:22:54.023Z,13.93
2018-11-05T00:25:21.134Z,13.67
2018-11-05T00:27:48.219Z,13.53
2018-11-05T00:30:15.383Z,13.33
2018-11-05T00:32:43.115Z,14.03
2018-11-05T00:35:10.464Z,13.37
2018-11-05T00:37:37.564Z,12.80
2018-11-05T00:40:06.967Z,12.67
2018-11-05T00:42:34.068Z,13.53
2018-11-05T00:45:01.171Z,13.30
2018-11-05T00:47:28.264Z,13.23
2018-11-05T00:49:55.357Z,14.53
2018-11-05T00:52:22.428Z,13.07
2018-11-05T00:54:49.534Z,13.43
2018-11-05T00:57:16.636Z,13.93
2018-11-05T00:59:43.730Z,12.83
2018-11-05T01:02:11.195Z,13.77
2018-11-05T01:04:38.272Z,13.90
2018-11-05T01:07:05.370Z,14.03
2018-11-05T01:09:32.467Z,14.27
2018-11-05T01:11:59.560Z,14.20
2018-11-05T01:14:26.662Z,13.33
2018-11-05T01:16:53.731Z,13.67
2018-11-05T01:19:20.843Z,14.00
2018-11-05T01:21:47.955Z,14.77
2018-11-05T01:24:15.047Z,14.03
2018-11-05T01:26:42.122Z,15.00
2018-11-05T01:29:09.197Z,14.20
2018-11-05T01:31:36.254Z,14.23
2018-11-05T01:34:03.327Z,13.60
2018-11-05T01:36:30.438Z,13.77
2018-11-05T01:38:57.546Z,14.47
2018-11-05T01:41:24.672Z,14.47
2018-11-05T01:43:51.766Z,14.53
2018-11-05T01:46:18.854Z,15.27
2018-11-05T01:48:45.932Z,14.97
2018-11-05T01:51:13.271Z,14.77
2018-11-05T01:53:40.545Z,14.50
2018-11-05T01:56:07.655Z,15.90
2018-11-05T01:58:34.747Z,15.10
2018-11-05T02:01:01.859Z,13.83
2018-11-05T02:03:28.959Z,14.93
2018-11-05T02:05:56.042Z,15.57
2018-11-05T02:08:23.161Z,15.00
2018-11-05T02:10:50.252Z,16.10
2018-11-05T02:13:17.369Z,15.50
2018-11-05T02:15:44.466Z,16.97
2018-11-05T02:18:11.592Z,15.63
2018-11-05T02:20:38.678Z,15.57
2018-11-05T02:23:05.791Z,15.63
2018-11-05T02:25:32.876Z,15.60
2018-11-05T02:27:59.955Z,16.43
2018-11-05T02:30:27.220Z,15.60
2018-11-05T02:32:54.323Z,16.37
2018-11-05T02:35:21.417Z,15.73
2018-11-05T02:37:48.986Z,15.77
2018-11-05T02:40:17.351Z,15.67
2018-11-05T02:42:44.792Z,15.73
2018-11-05T02:45:12.996Z,15.93
2018-11-05T02:47:40.107Z,16.50
2018-11-05T02:50:08.687Z,16.97
2018-11-05T02:52:35.954Z,15.97
2018-11-05T02:55:03.308Z,16.47
2018-11-05T02:57:30.406Z,16.87
2018-11-05T02:59:57.507Z,15.93
2018-11-05T03:02:24.690Z,16.13
2018-11-05T03:04:51.911Z,16.07
2018-11-05T03:07:19.167Z,17.10
2018-11-05T03:09:46.272Z,16.47
2018-11-05T03:12:13.370Z,17.30
2018-11-05T03:14:40.490Z,17.20
2018-11-05T03:17:07.601Z,16.20
2018-11-05T03:19:34.690Z,17.90
2018-11-05T03:22:01.798Z,17.27
2018-11-05T03:24:28.902Z,16.10
2018-11-05T03:26:56.011Z,17.20
2018-11-05T03:29:23.112Z,17.70
2018-11-05T03:31:50.197Z,17.87
2018-11-05T03:34:17.300Z,17.33
2018-11-05T03:36:44.401Z,17.20
2018-11-05T03:39:11.942Z,17.33
2018-11-05T03:41:39.167Z,16.70
2018-11-05T03:44:06.631Z,18.10
2018-11-05T03:46:33.891Z,17.47
2018-11-05T03:49:00.970Z,18.00
2018-11-05T03:51:28.056Z,17.73
2018-11-05T03:53:55.138Z,18.30
2018-11-05T03:56:22.323Z,18.80
2018-11-05T03:58:49.345Z,17.33
2018-11-05T04:01:16.469Z,17.43
2018-11-05T04:03:43.568Z,17.03
2018-11-05T04:06:10.664Z,17.30
2018-11-05T04:08:37.743Z,17.53
2018-11-05T04:11:04.879Z,18.27
2018-11-05T04:13:31.970Z,17.60
2018-11-05T04:15:59.148Z,17.93
2018-11-05T04:18:26.208Z,18.00
2018-11-05T04:20:53.296Z,17.57
2018-11-05T04:23:20.371Z,18.33
2018-11-05T04:25:47.492Z,17.47
2018-11-05T04:28:14.589Z,17.33
2018-11-05T04:30:41.702Z,17.87
2018-11-05T04:33:08.818Z,18.00
2018-11-05T04:35:35.920Z,17.20
2018-11-05T04:38:03.039Z,18.23
2018-11-05T04:40:30.144Z,17.17
2018-11-05T04:42:57.251Z,18.13
2018-11-05T04:45:24.373Z,17.23
2018-11-05T04:47:51.491Z,17.93
2018-11-05T04:50:18.604Z,17.47
2018-11-05T04:52:45.690Z,17.77
2018-11-05T04:55:12.747Z,17.37
2018-11-05T04:57:39.853Z,17.50
2018-11-05T05:00:08.870Z,18.07
2018-11-05T05:02:35.963Z,18.63
2018-11-05T05:05:03.062Z,18.53
2018-11-05T05:07:30.147Z,18.03
2018-11-05T05:09:57.244Z,18.90
2018-11-05T05:12:24.362Z,17.80
2018-11-05T05:14:51.496Z,17.90
2018-11-05T05:17:18.597Z,17.93
2018-11-05T05:19:45.691Z,18.27
2018-11-05T05:22:12.810Z,17.03
2018-11-05T05:24:39.935Z,18.17
2018-11-05T05:27:07.040Z,17.40
2018-11-05T05:29:34.204Z,17.77
2018-11-05T05:32:01.301Z,17.93
2018-11-05T05:34:28.406Z,18.63
2018-11-05T05:36:55.507Z,18.53
2018-11-05T05:39:22.590Z,17.53
2018-11-05T05:41:49.688Z,17.97
2018-11-05T05:44:16.798Z,18.20
2018-11-05T05:46:43.936Z,17.93
2018-11-05T05:49:11.038Z,18.10
2018-11-05T05:51:38.163Z,18.20
2018-11-05T05:54:05.275Z,17.50
2018-11-05T05:56:32.357Z,18.13
2018-11-05T05:58:59.467Z,18.43
2018-11-05T06:01:26.588Z,18.03
2018-11-05T06:03:53.688Z,19.07
2018-11-05T06:06:20.937Z,17.97
2018-11-05T06:08:47.918Z,17.73
2018-11-05T06:11:15.018Z,18.90
2018-11-05T06:13:42.132Z,17.87
2018-11-05T06:16:09.219Z,18.47
2018-11-05T06:18:36.314Z,18.27
2018-11-05T06:21:03.410Z,18.80
2018-11-05T06:23:30.503Z,18.00
2018-11-05T06:25:57.597Z,17.97
2018-11-05T06:28:24.697Z,18.40
2018-11-05T06:30:51.787Z,17.50
2018-11-05T06:33:18.891Z,18.27
2018-11-05T06:35:45.987Z,18.40
2018-11-05T06:38:13.078Z,17.80
2018-11-05T06:40:40.200Z,18.03
2018-11-05T06:43:07.285Z,18.87
2018-11-05T06:45:34.469Z,18.33
2018-11-05T06:48:01.528Z,18.90
2018-11-05T06:50:28.637Z,17.63
2018-11-05T06:52:55.756Z,17.33
2018-11-05T06:55:22.878Z,18.50
2018-11-05T06:57:50.091Z,17.47
2018-11-05T07:00:18.629Z,18.37
2018-11-05T07:02:45.760Z,18.37
2018-11-05T07:05:13.452Z,17.30
2018-11-05T07:07:40.551Z,19.27
2018-11-05T07:10:09.015Z,18.43
2018-11-05T07:12:36.163Z,17.37
2018-11-05T07:15:03.716Z,17.90
2018-11-05T07:17:30.810Z,17.37
2018-11-05T07:19:57.870Z,17.20
2018-11-05T07:22:24.955Z,17.30
2018-11-05T07:24:52.047Z,17.73
2018-11-05T07:27:19.439Z,17.13
2018-11-05T07:29:46.531Z,17.37
2018-11-05T07:32:13.608Z,17.23
2018-11-05T07:34:40.691Z,17.60
2018-11-05T07:37:07.783Z,17.67
2018-11-05T07:39:34.879Z,17.97
2018-11-05T07:42:01.966Z,18.07
2018-11-05T07:44:29.055Z,17.67
2018-11-05T07:46:56.151Z,18.13
2018-11-05T07:49:23.262Z,18.20
2018-11-05T07:51:50.330Z,17.80
2018-11-05T07:54:17.437Z,16.67
2018-11-05T07:56:44.570Z,16.90
2018-11-05T07:59:11.651Z,18.23
2018-11-05T08:01:38.751Z,16.37
2018-11-05T08:04:05.835Z,17.60
2018-11-05T08:06:32.931Z,16.07
2018-11-05T08:09:00.034Z,17.40
2018-11-05T08:11:27.139Z,16.87
2018-11-05T08:13:54.247Z,17.70
2018-11-05T08:16:21.345Z,17.07
2018-11-05T08:18:48.428Z,16.40
2018-11-05T08:21:15.511Z,18.23
2018-11-05T08:23:42.610Z,17.27
2018-11-05T08:26:09.683Z,18.60
2018-11-05T08:28:36.790Z,17.13
2018-11-05T08:31:04.514Z,17.70
2018-11-05T08:33:31.624Z,16.47
2018-11-05T08:35:58.691Z,16.87
2018-11-05T08:38:25.771Z,17.03
2018-11-05T08:40:52.895Z,17.50
2018-11-05T08:43:20.005Z,16.17
2018-11-05T08:45:47.115Z,17.53
2018-11-05T08:48:14.228Z,17.00
2018-11-05T08:50:41.423Z,17.83
2018-11-05T08:53:08.443Z,16.60
2018-11-05T08:55:35.543Z,16.83
2018-11-05T08:58:02.643Z,16.77
2018-11-05T09:00:35.366Z,17.20
2018-11-05T09:03:02.432Z,17.10
2018-11-05T09:05:29.590Z,16.50
2018-11-05T09:07:56.750Z,17.20
2018-11-05T09:10:24.087Z,18.40
2018-11-05T09:12:50.940Z,18.10
2018-11-05T09:15:19.278Z,16.37
2018-11-05T09:17:46.595Z,16.37
2018-11-05T09:20:14.723Z,15.87
2018-11-05T09:22:41.791Z,16.70
2018-11-05T09:25:09.864Z,18.33
2018-11-05T09:27:37.045Z,17.10
2018-11-05T09:30:06.420Z,16.17
2018-11-05T09:32:33.519Z,16.60
2018-11-05T09:35:00.624Z,17.57
2018-11-05T09:37:27.715Z,16.87
2018-11-05T09:39:54.794Z,15.67
2018-11-05T09:42:21.888Z,16.47
2018-11-05T09:44:49.110Z,16.73
2018-11-05T09:47:16.205Z,15.83
2018-11-05T09:49:43.412Z,15.73
2018-11-05T09:52:10.395Z,15.90
2018-11-05T09:54:37.506Z,16.80
2018-11-05T09:57:04.781Z,16.87
2018-11-05T09:59:31.847Z,16.53
2018-11-05T10:01:58.932Z,16.57
2018-11-05T10:04:26.091Z,16.43
2018-11-05T10:06:53.149Z,16.70
2018-11-05T10:09:20.244Z,15.50
2018-11-05T10:11:47.348Z,15.87
2018-11-05T10:14:14.436Z,15.87
2018-11-05T10:16:41.513Z,16.10
2018-11-05T10:19:08.583Z,17.00
2018-11-05T10:21:35.701Z,16.53
2018-11-05T10:24:02.786Z,15.77
2018-11-05T10:26:30.161Z,16.93
2018-11-05T10:28:57.253Z,16.93
2018-11-05T10:31:25.675Z,16.03
2018-11-05T10:33:52.750Z,15.97
2018-11-05T10:36:20.300Z,16.73
2018-11-05T10:38:47.399Z,16.77
2018-11-05T10:41:14.718Z,16.93
2018-11-05T10:43:41.815Z,15.90
2018-11-05T10:46:08.920Z,16.93
2018-11-05T10:48:36.002Z,15.03
2018-11-05T10:51:03.124Z,17.20
2018-11-05T10:53:30.207Z,16.73
2018-11-05T10:55:57.301Z,15.50
2018-11-05T10:58:24.387Z,16.27
2018-11-05T11:00:57.106Z,15.23
2018-11-05T11:03:29.004Z,15.80
2018-11-05T11:05:56.083Z,16.70
2018-11-05T11:08:23.167Z,16.70
2018-11-05T11:10:50.292Z,16.20
2018-11-05T11:13:17.359Z,16.90
2018-11-05T11:15:44.476Z,15.23
2018-11-05T11:18:11.554Z,15.57
2018-11-05T11:20:38.650Z,15.77
2018-11-05T11:23:05.762Z,16.30
2018-11-05T11:25:32.885Z,16.43
2018-11-05T11:28:00.202Z,15.73
2018-11-05T11:30:27.059Z,17.00
2018-11-05T11:32:54.149Z,15.47
2018-11-05T11:35:21.245Z,15.43
2018-11-05T11:37:48.347Z,16.40
2018-11-05T11:40:16.982Z,15.43
2018-11-05T11:42:45.069Z,14.97
2018-11-05T11:45:12.878Z,15.53
2018-11-05T11:47:40.003Z,15.50
2018-11-05T11:50:08.562Z,15.23
2018-11-05T11:52:35.749Z,15.70
2018-11-05T11:55:02.991Z,16.20
2018-11-05T11:57:30.095Z,15.37
2018-11-05T11:59:57.186Z,15.47
2018-11-05T12:02:24.282Z,14.47
2018-11-05T12:04:51.475Z,15.27
2018-11-05T12:07:18.469Z,15.93
2018-11-05T12:09:45.567Z,16.33
2018-11-05T12:12:12.675Z,15.70
2018-11-05T12:14:39.917Z,15.47
2018-11-05T12:17:07.230Z,15.93
2018-11-05T12:19:34.342Z,15.87
2018-11-05T12:22:01.627Z,15.33
2018-11-05T12:24:28.890Z,15.33
2018-11-05T12:26:55.951Z,15.73
2018-11-05T12:29:23.140Z,15.63
2018-11-05T12:31:50.261Z,15.93
2018-11-05T12:34:17.360Z,14.63
2018-11-05T12:36:44.551Z,15.93
2018-11-05T12:39:11.663Z,15.63
2018-11-05T12:41:39.163Z,15.57
2018-11-05T12:44:07.234Z,14.87
2018-11-05T12:46:34.311Z,15.53
2018-11-05T12:49:01.422Z,15.37
2018-11-05T12:51:28.502Z,15.77
2018-11-05T12:53:55.603Z,15.67
2018-11-05T12:56:22.752Z,14.87
2018-11-05T12:58:49.839Z,16.00
2018-11-05T13:01:16.921Z,14.77
2018-11-05T13:03:44.012Z,15.00
2018-11-05T13:06:11.111Z,15.50
2018-11-05T13:08:38.259Z,16.23
2018-11-05T13:11:05.436Z,14.90
2018-11-05T13:13:32.515Z,15.60
2018-11-05T13:15:59.627Z,14.73
2018-11-05T13:18:26.731Z,14.00
2018-11-05T13:20:53.842Z,14.87
2018-11-05T13:23:26.615Z,15.33
2018-11-05T13:25:53.740Z,14.80
2018-11-05T13:28:20.881Z,15.30
2018-11-05T13:30:47.943Z,14.70
2018-11-05T13:33:15.046Z,14.97
2018-11-05T13:35:42.156Z,14.63
2018-11-05T13:38:09.790Z,14.13
2018-11-05T13:40:36.440Z,15.50
2018-11-05T13:43:03.834Z,15.03
2018-11-05T13:45:31.154Z,14.80
2018-11-05T13:47:58.820Z,13.77
2018-11-05T13:50:25.486Z,14.23
2018-11-05T13:52:52.383Z,15.17
2018-11-05T13:55:19.506Z,14.47
2018-11-05T13:57:47.620Z,14.00
2018-11-05T14:00:16.063Z,14.67
2018-11-05T14:02:43.158Z,13.67
2018-11-05T14:05:10.786Z,14.77
2018-11-05T14:07:38.225Z,14.80
2018-11-05T14:10:08.785Z,14.77
2018-11-05T14:12:35.874Z,14.87
2018-11-05T14:15:02.986Z,15.03
2018-11-05T14:17:30.056Z,14.40
2018-11-05T14:19:57.152Z,14.93
2018-11-05T14:22:24.300Z,14.73
2018-11-05T14:24:51.466Z,14.70
2018-11-05T14:27:18.679Z,15.90
2018-11-05T14:29:46.104Z,15.07
2018-11-05T14:32:12.824Z,15.67
2018-11-05T14:34:39.891Z,15.30
2018-11-05T14:37:07.049Z,15.23
2018-11-05T14:39:34.092Z,16.33
2018-11-05T14:42:01.200Z,14.20
2018-11-05T14:44:28.312Z,15.03
2018-11-05T14:46:55.446Z,15.30
2018-11-05T14:49:22.555Z,14.97
2018-11-05T14:51:49.650Z,14.67
2018-11-05T14:54:16.715Z,15.03
2018-11-05T14:56:43.804Z,15.90
2018-11-05T14:59:10.917Z,14.73
2018-11-05T15:01:38.035Z,15.13
2018-11-05T15:04:05.127Z,15.60
2018-11-05T15:06:32.235Z,14.77
2018-11-05T15:08:59.331Z,13.70
2018-11-05T15:11:26.430Z,13.73
2018-11-05T15:13:53.539Z,15.03
2018-11-05T15:16:20.622Z,14.13
2018-11-05T15:18:48.072Z,14.50
2018-11-05T15:21:14.930Z,14.57
2018-11-05T15:23:41.959Z,14.73
2018-11-05T15:26:09.218Z,14.13
2018-11-05T15:28:36.224Z,14.97
2018-11-05T15:31:03.352Z,15.17
2018-11-05T15:33:30.500Z,13.83
2018-11-05T15:35:57.582Z,14.17
2018-11-05T15:38:24.663Z,14.60
2018-11-05T15:40:51.732Z,13.47
2018-11-05T15:43:18.808Z,13.90
2018-11-05T15:45:45.879Z,14.10
2018-11-05T15:48:12.988Z,14.13
2018-11-05T15:50:40.695Z,13.83
2018-11-05T15:53:08.014Z,13.87
2018-11-05T15:55:34.901Z,14.00
2018-11-05T15:58:02.028Z,14.60
2018-11-05T16:00:29.127Z,14.03
2018-11-05T16:02:59.359Z,14.07
2018-11-05T16:05:26.448Z,14.00
2018-11-05T16:07:53.522Z,14.37
2018-11-05T16:10:20.749Z,14.27
2018-11-05T16:12:47.986Z,13.73
2018-11-05T16:15:15.068Z,13.93
2018-11-05T16:17:42.138Z,14.37
2018-11-05T16:20:11.856Z,14.30
2018-11-05T16:22:38.935Z,14.10
2018-11-05T16:25:06.046Z,14.00
2018-11-05T16:27:33.215Z,13.97
2018-11-05T16:30:00.282Z,13.97
2018-11-05T16:32:27.345Z,13.40
2018-11-05T16:34:54.952Z,12.57
2018-11-05T16:37:22.019Z,13.30
2018-11-05T16:39:49.141Z,14.17
2018-11-05T16:42:16.236Z,13.17
2018-11-05T16:44:43.343Z,12.60
2018-11-05T16:47:10.433Z,14.63
2018-11-05T16:49:37.674Z,14.07
2018-11-05T16:52:05.287Z,13.00
2018-11-05T16:54:32.368Z,13.40
2018-11-05T16:56:59.455Z,13.23
2018-11-05T16:59:26.534Z,14.40
2018-11-05T17:01:53.989Z,13.70
2018-11-05T17:04:20.706Z,13.77
2018-11-05T17:06:47.774Z,13.73
2018-11-05T17:09:14.839Z,13.93
2018-11-05T17:11:41.923Z,13.07
2018-11-05T17:14:09.011Z,14.03
2018-11-05T17:16:36.111Z,13.40
2018-11-05T17:19:03.248Z,13.90
2018-11-05T17:21:30.286Z,13.87
2018-11-05T17:23:57.392Z,14.00
2018-11-05T17:26:24.542Z,13.33
2018-11-05T17:28:51.606Z,13.57
2018-11-05T17:31:18.732Z,13.60
2018-11-05T17:33:46.054Z,13.73
2018-11-05T17:36:13.062Z,13.70
2018-11-05T17:38:40.138Z,14.33
2018-11-05T17:41:07.265Z,13.60
2018-11-05T17:43:34.346Z,13.47
2018-11-05T17:46:01.468Z,13.43
2018-11-05T17:48:28.555Z,13.90
2018-11-05T17:50:55.764Z,13.77
2018-11-05T17:53:22.738Z,14.03
2018-11-05T17:55:49.831Z,12.93
2018-11-05T17:58:16.913Z,13.73
2018-11-05T18:00:44.028Z,14.97
2018-11-05T18:03:11.109Z,13.83
2018-11-05T18:05:38.199Z,13.40
2018-11-05T18:08:05.262Z,14.10
2018-11-05T18:10:32.336Z,13.70
2018-11-05T18:12:59.415Z,13.43
2018-11-05T18:15:26.522Z,14.17
2018-11-05T18:17:53.695Z,13.30
2018-11-05T18:20:20.789Z,13.70
2018-11-05T18:22:47.878Z,14.37
2018-11-05T18:25:16.131Z,14.07
2018-11-05T18:27:43.404Z,13.93
2018-11-05T18:30:11.344Z,13.37
2018-11-05T18:32:45.144Z,14.00
2018-11-05T18:35:13.010Z,13.10
2018-11-05T18:37:40.774Z,12.87
2018-11-05T18:40:09.479Z,13.93
2018-11-05T18:42:36.620Z,13.40
2018-11-05T18:45:03.743Z,13.60
2018-11-05T18:47:30.832Z,13.93
2018-11-05T18:49:57.999Z,14.03
2018-11-05T18:52:25.072Z,13.93
2018-11-05T18:54:52.187Z,13.50
2018-11-05T18:57:19.280Z,14.30
2018-11-05T18:59:46.399Z,13.93
2018-11-05T19:02:46.502Z,14.00
2018-11-05T19:05:13.547Z,13.57
2018-11-05T19:07:40.668Z,13.53
2018-11-05T19:10:07.764Z,14.23
2018-11-05T19:12:34.875Z,13.77
2018-11-05T19:15:02.036Z,14.77
2018-11-05T19:17:29.152Z,13.63
2018-11-05T19:19:56.264Z,13.80
2018-11-05T19:22:23.416Z,13.20
2018-11-05T19:24:50.486Z,13.83
2018-11-05T19:27:17.602Z,14.17
2018-11-05T19:29:44.718Z,13.37
2018-11-05T19:32:11.823Z,14.70
2018-11-05T19:34:38.917Z,13.27
2018-11-05T19:37:06.523Z,13.67
2018-11-05T19:39:33.612Z,13.47
2018-11-05T19:42:00.726Z,12.27
2018-11-05T19:44:27.762Z,13.33
2018-11-05T19:46:54.838Z,13.77
2018-11-05T19:49:21.945Z,13.53
2018-11-05T19:51:49.036Z,13.77
2018-11-05T19:54:16.139Z,13.33
2018-11-05T19:56:43.235Z,13.17
2018-11-05T19:59:10.307Z,13.40
2018-11-05T20:01:37.412Z,13.17
2018-11-05T20:04:04.814Z,12.00
2018-11-05T20:06:31.894Z,13.00
2018-11-05T20:08:58.993Z,13.13
2018-11-05T20:11:26.101Z,12.50
2018-11-05T20:13:53.555Z,12.97
2018-11-05T20:16:20.676Z,13.20
2018-11-05T20:18:47.991Z,13.00
2018-11-05T20:21:15.244Z,12.77
2018-11-05T20:23:42.339Z,12.57
2018-11-05T20:26:09.435Z,12.60
2018-11-05T20:28:36.562Z,12.27
2018-11-05T20:31:04.218Z,12.33
2018-11-05T20:33:31.379Z,12.70
2018-11-05T20:35:58.308Z,12.80
2018-11-05T20:38:25.383Z,12.27
2018-11-05T20:40:52.511Z,13.23
2018-11-05T20:43:19.642Z,11.67
2018-11-05T20:45:46.741Z,12.63
2018-11-05T20:48:13.803Z,11.87
2018-11-05T20:50:40.903Z,11.47
2018-11-05T20:53:07.991Z,12.80
2018-11-05T20:55:35.085Z,12.57
2018-11-05T20:58:02.205Z,12.07
2018-11-05T21:00:29.300Z,12.63
2018-11-05T21:02:56.368Z,11.97
2018-11-05T21:05:23.471Z,12.57
2018-11-05T21:07:50.543Z,12.00
2018-11-05T21:10:17.667Z,12.13
2018-11-05T21:12:44.775Z,11.60
2018-11-05T21:15:14.936Z,11.03
2018-11-05T21:17:42.482Z,12.13
2018-11-05T21:20:09.723Z,11.63
2018-11-05T21:22:36.943Z,11.37
2018-11-05T21:25:04.419Z,11.80
2018-11-05T21:27:31.539Z,11.77
2018-11-05T21:29:58.661Z,11.17
2018-11-05T21:32:25.734Z,11.20
2018-11-05T21:34:52.849Z,11.90
2018-11-05T21:37:19.930Z,11.93
2018-11-05T21:39:47.014Z,12.07
2018-11-05T21:42:14.109Z,12.30
2018-11-05T21:44:41.206Z,11.00
2018-11-05T21:47:08.320Z,12.10
2018-11-05T21:49:35.437Z,11.37
2018-11-05T21:52:02.522Z,11.53
2018-11-05T21:54:29.674Z,11.43
2018-11-05T21:56:56.754Z,11.13
2018-11-05T21:59:23.847Z,10.93
2018-11-05T22:01:50.956Z,11.03
2018-11-05T22:04:18.071Z,10.97
2018-11-05T22:06:45.130Z,10.33
2018-11-05T22:09:12.200Z,11.73
2018-11-05T22:11:39.271Z,11.47
2018-11-05T22:14:06.364Z,10.73
2018-11-05T22:16:33.460Z,11.07
2018-11-05T22:19:00.563Z,10.77
2018-11-05T22:21:27.684Z,10.57
2018-11-05T22:23:54.800Z,11.53
2018-11-05T22:26:21.899Z,10.73
2018-11-05T22:28:49.021Z,10.80
2018-11-05T22:31:16.104Z,11.27
2018-11-05T22:33:43.219Z,10.83
2018-11-05T22:36:10.489Z,11.07
2018-11-05T22:38:37.740Z,10.80
2018-11-05T22:41:05.559Z,9.77
2018-11-05T22:43:33.002Z,10.13
2018-11-05T22:46:00.104Z,10.87
2018-11-05T22:48:27.200Z,10.07
2018-11-05T22:50:54.294Z,10.30
2018-11-05T22:53:21.380Z,10.70
2018-11-05T22:55:48.494Z,9.60
2018-11-05T22:58:15.587Z,10.53
2018-11-05T23:00:48.372Z,10.67
2018-11-05T23:03:21.263Z,9.67
2018-11-05T23:05:48.363Z,10.40
2018-11-05T23:08:15.467Z,9.70
2018-11-05T23:10:43.247Z,10.63
2018-11-05T23:13:10.356Z,10.10
2018-11-05T23:15:37.463Z,10.40
2018-11-05T23:18:04.606Z,9.90
2018-11-05T23:20:31.714Z,9.90
2018-11-05T23:22:58.807Z,10.43
2018-11-05T23:25:25.947Z,9.73
2018-11-05T23:27:53.074Z,10.17
2018-11-05T23:30:20.192Z,10.33
2018-11-05T23:32:47.279Z,9.70
2018-11-05T23:35:14.398Z,10.40
2018-11-05T23:37:41.714Z,9.80
2018-11-05T23:40:08.979Z,10.27
2018-11-05T23:42:36.829Z,9.73
2018-11-05T23:45:05.799Z,9.97
2018-11-05T23:47:32.866Z,9.50
2018-11-05T23:49:59.948Z,9.70
2018-11-05T23:52:27.050Z,9.87
2018-11-05T23:54:54.130Z,10.20
2018-11-05T23:57:21.598Z,9.37
2018-11-05T23:59:48.668Z,10.20
